WMKK

Kuala Lumpur International Airport

Kuala Lumpur, Malaysia
TAF WMKK 181700Z 1818/2000 VRB02KT 9999 FEW017CB BECMG 1900/1902 16005KT FEW018 TEMPO 1907/1911 20008KT 4000 TSRA FEW015CB SCT018 BECMG 1912/1913 VRB02KT
Issued Valid From Valid To
Dec-18 @ 17:00 UTC
(6 hours ago)
Dec-18 @ 18:00 UTC
(5 hours ago)
Dec-20 @ 00:00 UTC
(-1 days ago)
Dec-18 @ 18:00 to Dec-19 @ 00:00
TAF WMKK 181700Z 1818/2000 VRB02KT 9999 FEW017CB
Wind Visibility Clouds
Variable at 2 knots 10,000+ meters
  • Few at 1,700' AGL
Becoming Dec-19 @ 00:00 to Dec-19 @ 12:00
BECMG 1900/1902 16005KT FEW018
Wind Visibility Clouds
160° at 5 knots 10,000+ meters
  • Few at 1,800' AGL
Temporary Dec-19 @ 07:00 to Dec-19 @ 11:00
TEMPO 1907/1911 20008KT 4000 TSRA FEW015CB SCT018
Wind Visibility Clouds Conditions
200° at 8 knots 4,007 meters
  • Few at 1,500' AGL
  • Scattered at 1,800' AGL
  • Thunderstorm
  • Rain
Becoming Dec-19 @ 12:00 to Dec-20 @ 00:00
BECMG 1912/1913 VRB02KT
Wind Visibility Clouds
Variable at 2 knots 10,000+ meters
  • Few at 1,800' AGL
TAF WMKK 181700Z 1818/2000 VRB02KT 9999 FEW017CB BECMG 1900/1902 16005KT FEW018 TEMPO 1907/1911 20008KT 4000 TSRA FEW015CB SCT018 BECMG 1912/1913 VRB02KT
Issued Dec-18 @ 17:00 UTC
(6 hours ago)
Valid From Dec-18 @ 18:00 UTC
(5 hours ago)
Valid To Dec-20 @ 00:00 UTC
(-1 days ago)
Dec-18 @ 18:00 - Dec-19 @ 00:00
Wind Visibility
Variable at 2 knots 10,000+ meters
Clouds
  • Few at 1,700' AGL
Becoming Dec-19 @ 00:00 - Dec-19 @ 12:00
Wind Visibility
160° at 5 knots 10,000+ meters
Clouds
  • Few at 1,800' AGL
Temporary Dec-19 @ 07:00 - Dec-19 @ 11:00
Wind Visibility
200° at 8 knots 4,007 meters
Clouds
  • Few at 1,500' AGL
  • Scattered at 1,800' AGL
Conditions
  • Thunderstorm
  • Rain
Becoming Dec-19 @ 12:00 - Dec-20 @ 00:00
Wind Visibility
Variable at 2 knots 10,000+ meters
Clouds
  • Few at 1,800' AGL